sensor_id;sensor_type;location;lat;lon;timestamp;P1;durP1;ratioP1;P2;durP2;ratioP2
68583;SDS011;55557;49.220;11.150;2022-09-01T00:01:14;5.43;;;3.80;;
68583;SDS011;55557;49.220;11.150;2022-09-01T00:03:44;4.57;;;3.80;;
68583;SDS011;55557;49.220;11.150;2022-09-01T00:06:17;5.37;;;3.77;;
68583;SDS011;55557;49.220;11.150;2022-09-01T00:08:52;5.07;;;4.23;;
68583;SDS011;55557;49.220;11.150;2022-09-01T00:11:19;5.37;;;3.67;;
68583;SDS011;55557;49.220;11.150;2022-09-01T00:13:46;5.73;;;3.40;;
68583;SDS011;55557;49.220;11.150;2022-09-01T00:16:13;4.77;;;3.63;;
68583;SDS011;55557;49.220;11.150;2022-09-01T00:18:40;3.97;;;3.57;;
68583;SDS011;55557;49.220;11.150;2022-09-01T00:21:09;6.07;;;3.80;;
68583;SDS011;55557;49.220;11.150;2022-09-01T00:23:36;4.87;;;4.07;;
68583;SDS011;55557;49.220;11.150;2022-09-01T00:26:02;4.47;;;3.90;;
68583;SDS011;55557;49.220;11.150;2022-09-01T00:28:28;6.50;;;3.60;;
68583;SDS011;55557;49.220;11.150;2022-09-01T00:30:54;4.47;;;3.97;;
68583;SDS011;55557;49.220;11.150;2022-09-01T00:33:20;3.57;;;3.23;;
68583;SDS011;55557;49.220;11.150;2022-09-01T00:35:46;4.13;;;3.50;;
68583;SDS011;55557;49.220;11.150;2022-09-01T00:38:12;5.67;;;3.57;;
68583;SDS011;55557;49.220;11.150;2022-09-01T00:40:38;4.90;;;3.60;;
68583;SDS011;55557;49.220;11.150;2022-09-01T00:43:15;4.80;;;3.80;;
68583;SDS011;55557;49.220;11.150;2022-09-01T00:45:42;4.63;;;3.57;;
68583;SDS011;55557;49.220;11.150;2022-09-01T00:48:08;4.47;;;3.90;;
68583;SDS011;55557;49.220;11.150;2022-09-01T00:50:34;5.13;;;4.10;;
68583;SDS011;55557;49.220;11.150;2022-09-01T00:53:01;5.50;;;3.90;;
68583;SDS011;55557;49.220;11.150;2022-09-01T00:55:30;8.83;;;3.90;;
68583;SDS011;55557;49.220;11.150;2022-09-01T00:57:57;4.30;;;3.47;;
68583;SDS011;55557;49.220;11.150;2022-09-01T01:00:25;6.03;;;3.67;;
68583;SDS011;55557;49.220;11.150;2022-09-01T01:02:52;6.53;;;3.80;;
68583;SDS011;55557;49.220;11.150;2022-09-01T01:05:20;6.70;;;4.40;;
68583;SDS011;55557;49.220;11.150;2022-09-01T01:07:47;4.13;;;3.70;;
68583;SDS011;55557;49.220;11.150;2022-09-01T01:10:15;5.43;;;4.50;;
68583;SDS011;55557;49.220;11.150;2022-09-01T01:12:41;4.50;;;3.80;;
68583;SDS011;55557;49.220;11.150;2022-09-01T01:15:10;4.87;;;3.90;;
68583;SDS011;55557;49.220;11.150;2022-09-01T01:17:36;5.33;;;3.53;;
68583;SDS011;55557;49.220;11.150;2022-09-01T01:20:02;5.87;;;3.50;;
68583;SDS011;55557;49.220;11.150;2022-09-01T01:25:37;4.07;;;3.67;;
68583;SDS011;55557;49.220;11.150;2022-09-01T01:28:22;4.37;;;3.70;;
68583;SDS011;55557;49.220;11.150;2022-09-01T01:31:11;4.90;;;3.70;;
68583;SDS011;55557;49.220;11.150;2022-09-01T01:33:39;3.97;;;3.60;;
68583;SDS011;55557;49.220;11.150;2022-09-01T01:36:07;4.70;;;3.33;;
68583;SDS011;55557;49.220;11.150;2022-09-01T01:38:34;4.03;;;3.47;;
68583;SDS011;55557;49.220;11.150;2022-09-01T01:41:00;4.20;;;3.20;;
68583;SDS011;55557;49.220;11.150;2022-09-01T01:43:30;6.20;;;3.50;;
68583;SDS011;55557;49.220;11.150;2022-09-01T01:45:56;4.23;;;3.33;;
68583;SDS011;55557;49.220;11.150;2022-09-01T01:48:27;6.27;;;3.50;;
68583;SDS011;55557;49.220;11.150;2022-09-01T01:50:54;7.40;;;3.87;;
68583;SDS011;55557;49.220;11.150;2022-09-01T01:53:23;5.53;;;3.83;;
68583;SDS011;55557;49.220;11.150;2022-09-01T01:55:49;3.87;;;3.43;;
68583;SDS011;55557;49.220;11.150;2022-09-01T01:58:15;4.60;;;3.80;;
68583;SDS011;55557;49.220;11.150;2022-09-01T02:00:43;4.03;;;3.63;;
68583;SDS011;55557;49.220;11.150;2022-09-01T02:03:10;5.20;;;3.70;;
68583;SDS011;55557;49.220;11.150;2022-09-01T02:05:43;4.30;;;3.60;;
68583;SDS011;55557;49.220;11.150;2022-09-01T02:08:10;4.70;;;3.70;;
68583;SDS011;55557;49.220;11.150;2022-09-01T02:10:39;5.07;;;3.73;;
68583;SDS011;55557;49.220;11.150;2022-09-01T02:13:06;5.13;;;3.73;;
68583;SDS011;55557;49.220;11.150;2022-09-01T02:15:34;4.57;;;3.50;;
68583;SDS011;55557;49.220;11.150;2022-09-01T02:18:07;7.03;;;3.93;;
68583;SDS011;55557;49.220;11.150;2022-09-01T02:20:38;4.20;;;3.50;;
68583;SDS011;55557;49.220;11.150;2022-09-01T02:23:04;4.13;;;3.73;;
68583;SDS011;55557;49.220;11.150;2022-09-01T02:25:35;4.17;;;3.57;;
68583;SDS011;55557;49.220;11.150;2022-09-01T02:28:02;3.53;;;3.23;;
68583;SDS011;55557;49.220;11.150;2022-09-01T02:30:28;4.83;;;4.33;;
68583;SDS011;55557;49.220;11.150;2022-09-01T02:32:56;5.37;;;3.70;;
68583;SDS011;55557;49.220;11.150;2022-09-01T02:35:22;5.83;;;3.83;;
68583;SDS011;55557;49.220;11.150;2022-09-01T02:37:51;6.93;;;4.10;;
68583;SDS011;55557;49.220;11.150;2022-09-01T02:40:20;4.10;;;3.70;;
68583;SDS011;55557;49.220;11.150;2022-09-01T02:42:46;3.80;;;3.50;;
68583;SDS011;55557;49.220;11.150;2022-09-01T02:45:13;3.90;;;3.50;;
68583;SDS011;55557;49.220;11.150;2022-09-01T02:47:40;5.80;;;3.67;;
68583;SDS011;55557;49.220;11.150;2022-09-01T02:50:12;3.57;;;3.23;;
68583;SDS011;55557;49.220;11.150;2022-09-01T02:52:40;4.13;;;3.57;;
68583;SDS011;55557;49.220;11.150;2022-09-01T02:55:07;6.63;;;3.60;;
68583;SDS011;55557;49.220;11.150;2022-09-01T02:57:34;4.43;;;3.40;;
68583;SDS011;55557;49.220;11.150;2022-09-01T03:00:00;6.07;;;3.53;;
68583;SDS011;55557;49.220;11.150;2022-09-01T03:02:26;4.10;;;3.30;;
68583;SDS011;55557;49.220;11.150;2022-09-01T03:04:53;3.57;;;3.17;;
68583;SDS011;55557;49.220;11.150;2022-09-01T03:07:20;5.80;;;3.57;;
68583;SDS011;55557;49.220;11.150;2022-09-01T03:09:47;4.50;;;3.50;;
68583;SDS011;55557;49.220;11.150;2022-09-01T03:12:13;5.20;;;3.97;;
68583;SDS011;55557;49.220;11.150;2022-09-01T03:14:39;4.43;;;3.97;;
68583;SDS011;55557;49.220;11.150;2022-09-01T03:17:05;5.60;;;3.53;;
68583;SDS011;55557;49.220;11.150;2022-09-01T03:19:31;4.30;;;3.20;;
68583;SDS011;55557;49.220;11.150;2022-09-01T03:22:08;4.80;;;3.40;;
68583;SDS011;55557;49.220;11.150;2022-09-01T03:24:34;5.30;;;3.93;;
68583;SDS011;55557;49.220;11.150;2022-09-01T03:27:00;3.70;;;3.30;;
68583;SDS011;55557;49.220;11.150;2022-09-01T03:29:26;4.83;;;3.90;;
68583;SDS011;55557;49.220;11.150;2022-09-01T03:31:52;4.43;;;3.90;;
68583;SDS011;55557;49.220;11.150;2022-09-01T03:34:18;3.87;;;3.40;;
68583;SDS011;55557;49.220;11.150;2022-09-01T03:36:47;4.10;;;3.40;;
68583;SDS011;55557;49.220;11.150;2022-09-01T03:39:18;5.20;;;3.70;;
68583;SDS011;55557;49.220;11.150;2022-09-01T03:41:44;3.30;;;3.00;;
68583;SDS011;55557;49.220;11.150;2022-09-01T03:44:11;4.17;;;3.57;;
68583;SDS011;55557;49.220;11.150;2022-09-01T03:46:40;4.87;;;3.80;;
68583;SDS011;55557;49.220;11.150;2022-09-01T03:49:07;3.83;;;3.43;;
68583;SDS011;55557;49.220;11.150;2022-09-01T03:51:37;4.30;;;3.33;;
68583;SDS011;55557;49.220;11.150;2022-09-01T03:54:03;4.40;;;3.80;;
68583;SDS011;55557;49.220;11.150;2022-09-01T03:56:29;4.53;;;3.67;;
68583;SDS011;55557;49.220;11.150;2022-09-01T03:58:56;4.23;;;3.53;;
68583;SDS011;55557;49.220;11.150;2022-09-01T04:01:23;6.87;;;4.13;;
68583;SDS011;55557;49.220;11.150;2022-09-01T04:03:49;4.93;;;3.87;;
68583;SDS011;55557;49.220;11.150;2022-09-01T04:06:16;5.37;;;4.03;;
68583;SDS011;55557;49.220;11.150;2022-09-01T04:08:43;5.50;;;3.80;;
68583;SDS011;55557;49.220;11.150;2022-09-01T04:11:16;5.23;;;3.57;;
68583;SDS011;55557;49.220;11.150;2022-09-01T04:13:43;7.57;;;3.80;;
68583;SDS011;55557;49.220;11.150;2022-09-01T04:16:19;8.07;;;3.57;;
68583;SDS011;55557;49.220;11.150;2022-09-01T04:19:04;4.10;;;3.70;;
68583;SDS011;55557;49.220;11.150;2022-09-01T04:21:39;4.67;;;4.17;;
68583;SDS011;55557;49.220;11.150;2022-09-01T04:24:06;3.97;;;3.37;;
68583;SDS011;55557;49.220;11.150;2022-09-01T04:26:33;5.37;;;3.30;;
68583;SDS011;55557;49.220;11.150;2022-09-01T04:28:59;6.17;;;4.03;;
68583;SDS011;55557;49.220;11.150;2022-09-01T04:31:26;4.00;;;3.60;;
68583;SDS011;55557;49.220;11.150;2022-09-01T04:33:54;4.33;;;3.50;;
68583;SDS011;55557;49.220;11.150;2022-09-01T04:36:25;3.97;;;3.47;;
68583;SDS011;55557;49.220;11.150;2022-09-01T04:38:55;4.50;;;4.07;;
68583;SDS011;55557;49.220;11.150;2022-09-01T04:41:22;5.43;;;3.80;;
68583;SDS011;55557;49.220;11.150;2022-09-01T04:43:50;4.83;;;3.90;;
68583;SDS011;55557;49.220;11.150;2022-09-01T04:46:17;4.23;;;3.50;;
68583;SDS011;55557;49.220;11.150;2022-09-01T04:48:43;6.03;;;3.53;;
68583;SDS011;55557;49.220;11.150;2022-09-01T04:51:10;4.20;;;3.50;;
68583;SDS011;55557;49.220;11.150;2022-09-01T04:53:37;5.70;;;4.10;;
68583;SDS011;55557;49.220;11.150;2022-09-01T04:56:04;5.03;;;3.93;;
68583;SDS011;55557;49.220;11.150;2022-09-01T04:58:31;6.23;;;3.70;;
68583;SDS011;55557;49.220;11.150;2022-09-01T05:00:58;4.83;;;3.90;;
68583;SDS011;55557;49.220;11.150;2022-09-01T05:03:24;5.20;;;4.30;;
68583;SDS011;55557;49.220;11.150;2022-09-01T05:05:51;5.13;;;4.60;;
68583;SDS011;55557;49.220;11.150;2022-09-01T05:08:22;7.43;;;4.67;;
68583;SDS011;55557;49.220;11.150;2022-09-01T05:10:48;4.60;;;4.10;;
68583;SDS011;55557;49.220;11.150;2022-09-01T05:13:17;5.70;;;4.70;;
68583;SDS011;55557;49.220;11.150;2022-09-01T05:15:44;5.53;;;5.03;;
68583;SDS011;55557;49.220;11.150;2022-09-01T05:18:11;5.50;;;4.97;;
68583;SDS011;55557;49.220;11.150;2022-09-01T05:20:38;6.20;;;4.83;;
68583;SDS011;55557;49.220;11.150;2022-09-01T05:23:08;7.60;;;5.00;;
68583;SDS011;55557;49.220;11.150;2022-09-01T05:25:37;6.80;;;4.43;;
68583;SDS011;55557;49.220;11.150;2022-09-01T05:28:03;5.83;;;4.83;;
68583;SDS011;55557;49.220;11.150;2022-09-01T05:30:29;7.10;;;4.93;;
68583;SDS011;55557;49.220;11.150;2022-09-01T05:32:55;11.30;;;4.60;;
68583;SDS011;55557;49.220;11.150;2022-09-01T05:35:21;6.33;;;5.30;;
68583;SDS011;55557;49.220;11.150;2022-09-01T05:37:50;9.27;;;5.40;;
68583;SDS011;55557;49.220;11.150;2022-09-01T05:40:16;6.90;;;4.80;;
68583;SDS011;55557;49.220;11.150;2022-09-01T05:42:42;6.67;;;5.60;;
68583;SDS011;55557;49.220;11.150;2022-09-01T05:45:09;5.43;;;4.83;;
68583;SDS011;55557;49.220;11.150;2022-09-01T05:47:38;5.03;;;4.10;;
68583;SDS011;55557;49.220;11.150;2022-09-01T05:50:04;7.33;;;5.13;;
68583;SDS011;55557;49.220;11.150;2022-09-01T05:52:33;8.67;;;4.80;;
68583;SDS011;55557;49.220;11.150;2022-09-01T05:55:01;5.70;;;4.87;;
68583;SDS011;55557;49.220;11.150;2022-09-01T05:57:26;5.70;;;4.77;;
68583;SDS011;55557;49.220;11.150;2022-09-01T05:59:52;6.00;;;4.77;;
68583;SDS011;55557;49.220;11.150;2022-09-01T06:02:19;5.83;;;4.37;;
68583;SDS011;55557;49.220;11.150;2022-09-01T06:04:46;5.20;;;4.57;;
68583;SDS011;55557;49.220;11.150;2022-09-01T06:07:13;7.40;;;5.07;;
68583;SDS011;55557;49.220;11.150;2022-09-01T06:09:40;7.97;;;4.90;;
68583;SDS011;55557;49.220;11.150;2022-09-01T06:12:06;13.70;;;5.67;;
68583;SDS011;55557;49.220;11.150;2022-09-01T06:14:36;10.20;;;5.97;;
68583;SDS011;55557;49.220;11.150;2022-09-01T06:17:02;10.07;;;5.30;;
68583;SDS011;55557;49.220;11.150;2022-09-01T06:19:30;10.33;;;5.80;;
68583;SDS011;55557;49.220;11.150;2022-09-01T06:21:57;11.40;;;5.90;;
68583;SDS011;55557;49.220;11.150;2022-09-01T06:24:23;8.23;;;6.07;;
68583;SDS011;55557;49.220;11.150;2022-09-01T06:26:49;8.47;;;5.53;;
68583;SDS011;55557;49.220;11.150;2022-09-01T06:29:15;10.93;;;6.20;;
68583;SDS011;55557;49.220;11.150;2022-09-01T06:31:43;9.30;;;5.60;;
68583;SDS011;55557;49.220;11.150;2022-09-01T06:34:15;7.70;;;6.20;;
68583;SDS011;55557;49.220;11.150;2022-09-01T06:36:42;8.37;;;5.93;;
68583;SDS011;55557;49.220;11.150;2022-09-01T06:39:09;9.13;;;5.97;;
68583;SDS011;55557;49.220;11.150;2022-09-01T06:41:44;7.77;;;6.33;;
68583;SDS011;55557;49.220;11.150;2022-09-01T06:44:12;6.67;;;5.30;;
68583;SDS011;55557;49.220;11.150;2022-09-01T06:46:38;7.07;;;5.60;;
68583;SDS011;55557;49.220;11.150;2022-09-01T06:49:04;12.20;;;6.33;;
68583;SDS011;55557;49.220;11.150;2022-09-01T06:51:35;9.90;;;6.30;;
68583;SDS011;55557;49.220;11.150;2022-09-01T06:54:01;10.27;;;5.97;;
68583;SDS011;55557;49.220;11.150;2022-09-01T06:56:28;8.00;;;5.90;;
68583;SDS011;55557;49.220;11.150;2022-09-01T06:58:55;8.03;;;5.93;;
68583;SDS011;55557;49.220;11.150;2022-09-01T07:01:21;10.50;;;5.90;;
68583;SDS011;55557;49.220;11.150;2022-09-01T07:03:49;10.00;;;5.77;;
68583;SDS011;55557;49.220;11.150;2022-09-01T07:06:16;9.43;;;6.13;;
68583;SDS011;55557;49.220;11.150;2022-09-01T07:08:42;6.13;;;5.53;;
68583;SDS011;55557;49.220;11.150;2022-09-01T07:11:17;9.63;;;6.70;;
68583;SDS011;55557;49.220;11.150;2022-09-01T07:13:52;9.37;;;5.70;;
68583;SDS011;55557;49.220;11.150;2022-09-01T07:16:18;7.77;;;6.13;;
68583;SDS011;55557;49.220;11.150;2022-09-01T07:18:47;6.17;;;5.10;;
68583;SDS011;55557;49.220;11.150;2022-09-01T07:21:13;5.77;;;5.17;;
68583;SDS011;55557;49.220;11.150;2022-09-01T07:23:39;7.97;;;5.10;;
68583;SDS011;55557;49.220;11.150;2022-09-01T07:26:07;6.63;;;5.37;;
68583;SDS011;55557;49.220;11.150;2022-09-01T07:28:34;6.07;;;5.20;;
68583;SDS011;55557;49.220;11.150;2022-09-01T07:31:00;5.13;;;4.63;;
68583;SDS011;55557;49.220;11.150;2022-09-01T07:33:29;8.13;;;5.37;;
68583;SDS011;55557;49.220;11.150;2022-09-01T07:35:56;7.47;;;5.10;;
68583;SDS011;55557;49.220;11.150;2022-09-01T07:38:25;15.30;;;5.33;;
68583;SDS011;55557;49.220;11.150;2022-09-01T07:40:52;5.90;;;4.60;;
68583;SDS011;55557;49.220;11.150;2022-09-01T07:43:22;6.03;;;4.40;;
68583;SDS011;55557;49.220;11.150;2022-09-01T07:45:50;6.07;;;4.77;;
68583;SDS011;55557;49.220;11.150;2022-09-01T07:48:19;7.13;;;4.37;;
68583;SDS011;55557;49.220;11.150;2022-09-01T07:50:46;10.23;;;5.00;;
68583;SDS011;55557;49.220;11.150;2022-09-01T07:53:13;8.70;;;4.27;;
68583;SDS011;55557;49.220;11.150;2022-09-01T07:55:42;8.80;;;4.43;;
68583;SDS011;55557;49.220;11.150;2022-09-01T07:58:08;8.20;;;4.80;;
68583;SDS011;55557;49.220;11.150;2022-09-01T08:00:34;5.80;;;3.43;;
68583;SDS011;55557;49.220;11.150;2022-09-01T08:03:01;4.40;;;4.00;;
68583;SDS011;55557;49.220;11.150;2022-09-01T08:05:27;5.23;;;4.00;;
68583;SDS011;55557;49.220;11.150;2022-09-01T08:07:53;6.80;;;4.13;;
68583;SDS011;55557;49.220;11.150;2022-09-01T08:10:19;5.93;;;4.40;;
68583;SDS011;55557;49.220;11.150;2022-09-01T08:12:46;4.10;;;3.73;;
68583;SDS011;55557;49.220;11.150;2022-09-01T08:15:12;6.83;;;4.40;;
68583;SDS011;55557;49.220;11.150;2022-09-01T08:17:38;4.47;;;3.57;;
68583;SDS011;55557;49.220;11.150;2022-09-01T08:20:05;4.97;;;3.90;;
68583;SDS011;55557;49.220;11.150;2022-09-01T08:22:34;4.63;;;3.67;;
68583;SDS011;55557;49.220;11.150;2022-09-01T08:25:02;4.97;;;4.00;;
68583;SDS011;55557;49.220;11.150;2022-09-01T08:27:28;5.00;;;3.83;;
68583;SDS011;55557;49.220;11.150;2022-09-01T08:29:56;4.77;;;4.10;;
68583;SDS011;55557;49.220;11.150;2022-09-01T08:32:22;4.37;;;3.60;;
68583;SDS011;55557;49.220;11.150;2022-09-01T08:34:48;4.80;;;3.80;;
68583;SDS011;55557;49.220;11.150;2022-09-01T08:37:14;7.00;;;3.00;;
68583;SDS011;55557;49.220;11.150;2022-09-01T08:39:40;6.43;;;3.90;;
68583;SDS011;55557;49.220;11.150;2022-09-01T08:47:06;4.47;;;3.53;;
68583;SDS011;55557;49.220;11.150;2022-09-01T08:49:33;6.53;;;4.40;;
68583;SDS011;55557;49.220;11.150;2022-09-01T08:52:12;4.50;;;4.10;;
68583;SDS011;55557;49.220;11.150;2022-09-01T08:54:47;4.30;;;3.90;;
68583;SDS011;55557;49.220;11.150;2022-09-01T08:57:19;3.97;;;3.50;;
68583;SDS011;55557;49.220;11.150;2022-09-01T08:59:45;4.47;;;3.43;;
68583;SDS011;55557;49.220;11.150;2022-09-01T09:05:02;5.57;;;3.83;;
68583;SDS011;55557;49.220;11.150;2022-09-01T09:10:20;4.37;;;3.03;;
68583;SDS011;55557;49.220;11.150;2022-09-01T09:15:43;5.50;;;3.67;;
68583;SDS011;55557;49.220;11.150;2022-09-01T09:18:15;5.80;;;3.90;;
68583;SDS011;55557;49.220;11.150;2022-09-01T09:20:45;6.40;;;3.97;;
68583;SDS011;55557;49.220;11.150;2022-09-01T09:23:25;4.63;;;3.80;;
68583;SDS011;55557;49.220;11.150;2022-09-01T09:25:53;6.00;;;3.87;;
68583;SDS011;55557;49.220;11.150;2022-09-01T09:28:19;4.10;;;3.70;;
68583;SDS011;55557;49.220;11.150;2022-09-01T09:30:45;8.40;;;4.43;;
68583;SDS011;55557;49.220;11.150;2022-09-01T09:33:31;4.73;;;3.83;;
68583;SDS011;55557;49.220;11.150;2022-09-01T09:36:14;4.07;;;3.67;;
68583;SDS011;55557;49.220;11.150;2022-09-01T09:38:40;4.13;;;3.70;;
68583;SDS011;55557;49.220;11.150;2022-09-01T09:41:08;5.97;;;3.87;;
68583;SDS011;55557;49.220;11.150;2022-09-01T09:43:47;5.27;;;3.50;;
68583;SDS011;55557;49.220;11.150;2022-09-01T09:49:09;4.63;;;3.67;;
68583;SDS011;55557;49.220;11.150;2022-09-01T09:51:36;4.20;;;3.60;;
68583;SDS011;55557;49.220;11.150;2022-09-01T09:54:22;6.37;;;3.53;;
68583;SDS011;55557;49.220;11.150;2022-09-01T09:57:01;6.43;;;3.60;;
68583;SDS011;55557;49.220;11.150;2022-09-01T09:59:29;5.60;;;3.80;;
68583;SDS011;55557;49.220;11.150;2022-09-01T10:01:59;6.80;;;3.77;;
68583;SDS011;55557;49.220;11.150;2022-09-01T10:04:35;6.40;;;3.30;;
68583;SDS011;55557;49.220;11.150;2022-09-01T10:09:47;3.50;;;3.20;;
68583;SDS011;55557;49.220;11.150;2022-09-01T10:12:13;4.87;;;3.30;;
68583;SDS011;55557;49.220;11.150;2022-09-01T10:14:40;4.07;;;3.67;;
68583;SDS011;55557;49.220;11.150;2022-09-01T10:17:11;7.33;;;3.70;;
68583;SDS011;55557;49.220;11.150;2022-09-01T10:19:39;6.17;;;3.53;;
68583;SDS011;55557;49.220;11.150;2022-09-01T10:22:08;4.60;;;3.47;;
68583;SDS011;55557;49.220;11.150;2022-09-01T10:24:35;6.90;;;3.30;;
68583;SDS011;55557;49.220;11.150;2022-09-01T10:27:02;7.33;;;3.77;;
68583;SDS011;55557;49.220;11.150;2022-09-01T10:29:33;6.00;;;4.30;;
68583;SDS011;55557;49.220;11.150;2022-09-01T10:32:03;4.97;;;3.30;;
68583;SDS011;55557;49.220;11.150;2022-09-01T10:34:32;5.70;;;3.53;;
68583;SDS011;55557;49.220;11.150;2022-09-01T10:37:00;6.33;;;3.83;;
68583;SDS011;55557;49.220;11.150;2022-09-01T10:39:26;4.37;;;3.20;;
68583;SDS011;55557;49.220;11.150;2022-09-01T10:41:53;3.47;;;3.00;;
68583;SDS011;55557;49.220;11.150;2022-09-01T10:44:22;6.23;;;2.83;;
68583;SDS011;55557;49.220;11.150;2022-09-01T10:46:49;5.43;;;3.10;;
68583;SDS011;55557;49.220;11.150;2022-09-01T10:49:21;6.30;;;3.37;;
68583;SDS011;55557;49.220;11.150;2022-09-01T10:52:05;4.10;;;3.17;;
68583;SDS011;55557;49.220;11.150;2022-09-01T10:57:08;3.33;;;3.03;;
68583;SDS011;55557;49.220;11.150;2022-09-01T10:59:35;4.00;;;2.80;;
68583;SDS011;55557;49.220;11.150;2022-09-01T11:07:04;3.17;;;2.87;;
68583;SDS011;55557;49.220;11.150;2022-09-01T11:09:32;7.47;;;3.43;;
68583;SDS011;55557;49.220;11.150;2022-09-01T11:14:55;4.23;;;2.53;;
68583;SDS011;55557;49.220;11.150;2022-09-01T11:19:57;6.60;;;2.37;;
68583;SDS011;55557;49.220;11.150;2022-09-01T11:22:29;2.60;;;2.40;;
68583;SDS011;55557;49.220;11.150;2022-09-01T11:30:20;6.13;;;2.80;;
68583;SDS011;55557;49.220;11.150;2022-09-01T11:32:48;2.97;;;2.67;;
68583;SDS011;55557;49.220;11.150;2022-09-01T11:35:16;2.83;;;2.40;;
68583;SDS011;55557;49.220;11.150;2022-09-01T11:37:46;4.40;;;2.70;;
68583;SDS011;55557;49.220;11.150;2022-09-01T11:40:12;3.27;;;2.90;;
68583;SDS011;55557;49.220;11.150;2022-09-01T11:42:44;4.50;;;2.73;;
68583;SDS011;55557;49.220;11.150;2022-09-01T11:47:37;3.57;;;2.60;;
68583;SDS011;55557;49.220;11.150;2022-09-01T11:50:06;3.63;;;2.53;;
68583;SDS011;55557;49.220;11.150;2022-09-01T11:52:33;2.53;;;2.33;;
68583;SDS011;55557;49.220;11.150;2022-09-01T11:55:02;4.40;;;2.30;;
68583;SDS011;55557;49.220;11.150;2022-09-01T11:57:33;3.20;;;2.87;;
68583;SDS011;55557;49.220;11.150;2022-09-01T12:00:00;2.90;;;2.40;;
68583;SDS011;55557;49.220;11.150;2022-09-01T12:02:28;4.60;;;2.60;;
68583;SDS011;55557;49.220;11.150;2022-09-01T12:04:57;3.13;;;2.43;;
68583;SDS011;55557;49.220;11.150;2022-09-01T12:07:29;2.60;;;2.40;;
68583;SDS011;55557;49.220;11.150;2022-09-01T12:09:58;3.17;;;2.57;;
68583;SDS011;55557;49.220;11.150;2022-09-01T12:14:54;2.30;;;2.10;;
68583;SDS011;55557;49.220;11.150;2022-09-01T12:17:20;2.67;;;2.33;;
68583;SDS011;55557;49.220;11.150;2022-09-01T12:19:47;2.87;;;2.07;;
68583;SDS011;55557;49.220;11.150;2022-09-01T12:22:14;3.37;;;2.57;;
68583;SDS011;55557;49.220;11.150;2022-09-01T12:24:45;4.97;;;2.63;;
68583;SDS011;55557;49.220;11.150;2022-09-01T12:27:12;2.87;;;2.30;;
68583;SDS011;55557;49.220;11.150;2022-09-01T12:29:38;3.10;;;2.50;;
68583;SDS011;55557;49.220;11.150;2022-09-01T12:32:04;3.03;;;2.73;;
68583;SDS011;55557;49.220;11.150;2022-09-01T12:34:43;3.77;;;2.40;;
68583;SDS011;55557;49.220;11.150;2022-09-01T12:37:23;6.27;;;2.30;;
68583;SDS011;55557;49.220;11.150;2022-09-01T12:39:51;3.60;;;2.37;;
68583;SDS011;55557;49.220;11.150;2022-09-01T12:44:49;3.27;;;2.10;;
68583;SDS011;55557;49.220;11.150;2022-09-01T12:50:05;4.17;;;2.20;;
68583;SDS011;55557;49.220;11.150;2022-09-01T12:52:32;3.27;;;2.60;;
68583;SDS011;55557;49.220;11.150;2022-09-01T13:00:15;3.13;;;2.37;;
68583;SDS011;55557;49.220;11.150;2022-09-01T13:02:45;2.33;;;2.00;;
68583;SDS011;55557;49.220;11.150;2022-09-01T13:07:47;2.37;;;2.17;;
68583;SDS011;55557;49.220;11.150;2022-09-01T13:10:13;4.37;;;2.20;;
68583;SDS011;55557;49.220;11.150;2022-09-01T13:12:40;3.17;;;2.30;;
68583;SDS011;55557;49.220;11.150;2022-09-01T13:15:07;2.97;;;2.10;;
68583;SDS011;55557;49.220;11.150;2022-09-01T13:17:33;4.77;;;2.33;;
68583;SDS011;55557;49.220;11.150;2022-09-01T13:19:59;2.60;;;2.10;;
68583;SDS011;55557;49.220;11.150;2022-09-01T13:22:25;2.43;;;2.23;;
68583;SDS011;55557;49.220;11.150;2022-09-01T13:24:51;2.57;;;1.93;;
68583;SDS011;55557;49.220;11.150;2022-09-01T13:27:17;3.87;;;2.43;;
68583;SDS011;55557;49.220;11.150;2022-09-01T13:29:43;6.17;;;2.20;;
68583;SDS011;55557;49.220;11.150;2022-09-01T13:32:10;6.17;;;2.40;;
68583;SDS011;55557;49.220;11.150;2022-09-01T13:34:36;3.13;;;2.00;;
68583;SDS011;55557;49.220;11.150;2022-09-01T13:37:03;4.77;;;1.90;;
68583;SDS011;55557;49.220;11.150;2022-09-01T13:39:29;4.53;;;2.00;;
68583;SDS011;55557;49.220;11.150;2022-09-01T13:41:56;1.77;;;1.67;;
68583;SDS011;55557;49.220;11.150;2022-09-01T13:44:22;6.63;;;2.20;;
68583;SDS011;55557;49.220;11.150;2022-09-01T13:46:48;2.77;;;2.47;;
68583;SDS011;55557;49.220;11.150;2022-09-01T13:49:14;2.63;;;1.87;;
68583;SDS011;55557;49.220;11.150;2022-09-01T13:51:40;3.30;;;1.80;;
68583;SDS011;55557;49.220;11.150;2022-09-01T13:54:06;4.47;;;1.97;;
68583;SDS011;55557;49.220;11.150;2022-09-01T13:56:32;3.83;;;1.73;;
68583;SDS011;55557;49.220;11.150;2022-09-01T13:58:59;4.13;;;1.77;;
68583;SDS011;55557;49.220;11.150;2022-09-01T14:01:26;2.93;;;2.23;;
68583;SDS011;55557;49.220;11.150;2022-09-01T14:03:53;3.87;;;1.90;;
68583;SDS011;55557;49.220;11.150;2022-09-01T14:06:19;2.17;;;1.97;;
68583;SDS011;55557;49.220;11.150;2022-09-01T14:08:45;2.20;;;1.93;;
68583;SDS011;55557;49.220;11.150;2022-09-01T14:11:15;3.63;;;2.20;;
68583;SDS011;55557;49.220;11.150;2022-09-01T14:13:42;2.33;;;1.70;;
68583;SDS011;55557;49.220;11.150;2022-09-01T14:16:10;2.77;;;2.20;;
68583;SDS011;55557;49.220;11.150;2022-09-01T14:18:36;3.23;;;2.00;;
68583;SDS011;55557;49.220;11.150;2022-09-01T14:21:02;2.10;;;1.87;;
68583;SDS011;55557;49.220;11.150;2022-09-01T14:23:28;2.30;;;2.03;;
68583;SDS011;55557;49.220;11.150;2022-09-01T14:25:54;6.97;;;2.03;;
68583;SDS011;55557;49.220;11.150;2022-09-01T14:28:21;2.27;;;1.90;;
68583;SDS011;55557;49.220;11.150;2022-09-01T14:30:48;2.07;;;1.87;;
68583;SDS011;55557;49.220;11.150;2022-09-01T14:33:14;1.90;;;1.80;;
68583;SDS011;55557;49.220;11.150;2022-09-01T14:35:42;1.90;;;1.80;;
68583;SDS011;55557;49.220;11.150;2022-09-01T14:38:08;3.27;;;1.80;;
68583;SDS011;55557;49.220;11.150;2022-09-01T14:40:36;2.50;;;2.30;;
68583;SDS011;55557;49.220;11.150;2022-09-01T14:43:03;2.40;;;1.77;;
68583;SDS011;55557;49.220;11.150;2022-09-01T14:45:29;2.37;;;2.17;;
68583;SDS011;55557;49.220;11.150;2022-09-01T14:47:56;3.00;;;2.20;;
68583;SDS011;55557;49.220;11.150;2022-09-01T14:50:23;2.20;;;2.00;;
68583;SDS011;55557;49.220;11.150;2022-09-01T14:52:50;1.87;;;1.60;;
68583;SDS011;55557;49.220;11.150;2022-09-01T14:55:17;1.90;;;1.80;;
68583;SDS011;55557;49.220;11.150;2022-09-01T14:57:43;2.30;;;2.10;;
68583;SDS011;55557;49.220;11.150;2022-09-01T15:00:09;1.90;;;1.70;;
68583;SDS011;55557;49.220;11.150;2022-09-01T15:02:37;2.13;;;1.80;;
68583;SDS011;55557;49.220;11.150;2022-09-01T15:05:03;2.60;;;1.50;;
68583;SDS011;55557;49.220;11.150;2022-09-01T15:07:29;3.50;;;1.73;;
68583;SDS011;55557;49.220;11.150;2022-09-01T15:09:55;2.67;;;1.93;;
68583;SDS011;55557;49.220;11.150;2022-09-01T15:12:22;2.67;;;1.97;;
68583;SDS011;55557;49.220;11.150;2022-09-01T15:14:49;3.03;;;2.03;;
68583;SDS011;55557;49.220;11.150;2022-09-01T15:17:15;2.23;;;1.80;;
68583;SDS011;55557;49.220;11.150;2022-09-01T15:19:41;1.77;;;1.60;;
68583;SDS011;55557;49.220;11.150;2022-09-01T15:22:07;3.93;;;1.60;;
68583;SDS011;55557;49.220;11.150;2022-09-01T15:24:36;1.80;;;1.70;;
68583;SDS011;55557;49.220;11.150;2022-09-01T15:27:02;1.80;;;1.70;;
68583;SDS011;55557;49.220;11.150;2022-09-01T15:29:30;1.90;;;1.70;;
68583;SDS011;55557;49.220;11.150;2022-09-01T15:31:58;1.40;;;1.30;;
68583;SDS011;55557;49.220;11.150;2022-09-01T15:34:24;6.77;;;1.70;;
68583;SDS011;55557;49.220;11.150;2022-09-01T15:36:50;1.80;;;1.70;;